sensor_id;sensor_type;location;lat;lon;timestamp;P1;P2;P0
76330;PMS7003;65148;51.912;15.570;2023-07-20T00:01:22;2;2;2
76330;PMS7003;65148;51.912;15.570;2023-07-20T00:16:22;4;4;3
76330;PMS7003;65148;51.912;15.570;2023-07-20T00:31:24;5;5;4
76330;PMS7003;65148;51.912;15.570;2023-07-20T00:46:44;5;5;4
76330;PMS7003;65148;51.912;15.570;2023-07-20T01:01:45;4;4;4
76330;PMS7003;65148;51.912;15.570;2023-07-20T01:16:46;6;6;5
76330;PMS7003;65148;51.912;15.570;2023-07-20T01:31:50;5;5;4
76330;PMS7003;65148;51.912;15.570;2023-07-20T01:47:07;7;7;5
76330;PMS7003;65148;51.912;15.570;2023-07-20T02:02:08;4;4;4
76330;PMS7003;65148;51.912;15.570;2023-07-20T02:17:08;3;3;3
76330;PMS7003;65148;51.912;15.570;2023-07-20T02:32:11;2;2;2
76330;PMS7003;65148;51.912;15.570;2023-07-20T02:47:30;3;3;3
76330;PMS7003;65148;51.912;15.570;2023-07-20T03:02:31;4;4;4
76330;PMS7003;65148;51.912;15.570;2023-07-20T03:17:32;6;6;5
76330;PMS7003;65148;51.912;15.570;2023-07-20T03:32:33;5;5;5
76330;PMS7003;65148;51.912;15.570;2023-07-20T03:47:53;9;8;7
76330;PMS7003;65148;51.912;15.570;2023-07-20T04:02:53;10;10;9
76330;PMS7003;65148;51.912;15.570;2023-07-20T04:17:55;9;9;8
76330;PMS7003;65148;51.912;15.570;2023-07-20T04:32:56;9;9;7
76330;PMS7003;65148;51.912;15.570;2023-07-20T04:48:16;14;14;11
76330;PMS7003;65148;51.912;15.570;2023-07-20T05:03:17;19;19;14
76330;PMS7003;65148;51.912;15.570;2023-07-20T05:18:19;17;16;13
76330;PMS7003;65148;51.912;15.570;2023-07-20T05:33:21;17;17;13
76330;PMS7003;65148;51.912;15.570;2023-07-20T05:48:39;16;16;13
76330;PMS7003;65148;51.912;15.570;2023-07-20T06:03:40;17;17;12
76330;PMS7003;65148;51.912;15.570;2023-07-20T06:18:41;15;14;11
76330;PMS7003;65148;51.912;15.570;2023-07-20T06:33:42;14;14;12
76330;PMS7003;65148;51.912;15.570;2023-07-20T06:49:05;15;15;11
76330;PMS7003;65148;51.912;15.570;2023-07-20T07:04:08;5;5;4
76330;PMS7003;65148;51.912;15.570;2023-07-20T07:19:09;10;10;9
76330;PMS7003;65148;51.912;15.570;2023-07-20T07:34:10;9;9;8
76330;PMS7003;65148;51.912;15.570;2023-07-20T07:49:26;8;8;7
76330;PMS7003;65148;51.912;15.570;2023-07-20T08:04:28;9;8;7
76330;PMS7003;65148;51.912;15.570;2023-07-20T08:19:29;9;8;7
76330;PMS7003;65148;51.912;15.570;2023-07-20T08:34:30;6;6;6
76330;PMS7003;65148;51.912;15.570;2023-07-20T08:49:49;4;4;4
76330;PMS7003;65148;51.912;15.570;2023-07-20T09:04:50;5;5;5
76330;PMS7003;65148;51.912;15.570;2023-07-20T09:19:51;4;4;3
76330;PMS7003;65148;51.912;15.570;2023-07-20T09:34:52;4;4;3
76330;PMS7003;65148;51.912;15.570;2023-07-20T09:50:11;2;2;2
76330;PMS7003;65148;51.912;15.570;2023-07-20T10:05:13;4;4;3
76330;PMS7003;65148;51.912;15.570;2023-07-20T10:20:16;4;3;3
76330;PMS7003;65148;51.912;15.570;2023-07-20T10:35:17;3;3;3
76330;PMS7003;65148;51.912;15.570;2023-07-20T10:50:33;7;6;5
76330;PMS7003;65148;51.912;15.570;2023-07-20T11:05:39;3;3;2
76330;PMS7003;65148;51.912;15.570;2023-07-20T11:20:42;54;42;27
76330;PMS7003;65148;51.912;15.570;2023-07-20T11:35:43;4;3;3
76330;PMS7003;65148;51.912;15.570;2023-07-20T11:51:00;3;2;2
76330;PMS7003;65148;51.912;15.570;2023-07-20T12:21:08;1;1;1
76330;PMS7003;65148;51.912;15.570;2023-07-20T12:36:38;2;2;1
76330;PMS7003;65148;51.912;15.570;2023-07-20T12:51:39;1;1;1
76330;PMS7003;65148;51.912;15.570;2023-07-20T13:06:40;1;0;0
76330;PMS7003;65148;51.912;15.570;2023-07-20T13:21:41;2;0;0
76330;PMS7003;65148;51.912;15.570;2023-07-20T13:37:00;1;1;1
76330;PMS7003;65148;51.912;15.570;2023-07-20T13:52:01;0;0;0
76330;PMS7003;65148;51.912;15.570;2023-07-20T14:07:02;0;0;0
76330;PMS7003;65148;51.912;15.570;2023-07-20T14:22:03;0;0;0
76330;PMS7003;65148;51.912;15.570;2023-07-20T14:37:19;0;0;0
76330;PMS7003;65148;51.912;15.570;2023-07-20T14:52:21;0;0;0
76330;PMS7003;65148;51.912;15.570;2023-07-20T15:12:56;1;1;0
76330;PMS7003;65148;51.912;15.570;2023-07-20T15:27:57;0;0;0
76330;PMS7003;65148;51.912;15.570;2023-07-20T15:42:58;0;0;0
76330;PMS7003;65148;51.912;15.570;2023-07-20T15:58:16;0;0;0
76330;PMS7003;65148;51.912;15.570;2023-07-20T16:13:17;0;0;0
76330;PMS7003;65148;51.912;15.570;2023-07-20T16:28:18;0;0;0
76330;PMS7003;65148;51.912;15.570;2023-07-20T16:43:19;0;0;0
76330;PMS7003;65148;51.912;15.570;2023-07-20T16:58:37;1;1;0
76330;PMS7003;65148;51.912;15.570;2023-07-20T17:13:38;0;0;0
76330;PMS7003;65148;51.912;15.570;2023-07-20T17:28:39;0;0;0
76330;PMS7003;65148;51.912;15.570;2023-07-20T17:43:40;0;0;0
76330;PMS7003;65148;51.912;15.570;2023-07-20T17:58:57;0;0;0
76330;PMS7003;65148;51.912;15.570;2023-07-20T18:13:59;0;0;0
76330;PMS7003;65148;51.912;15.570;2023-07-20T18:29:01;0;0;0
76330;PMS7003;65148;51.912;15.570;2023-07-20T18:44:02;0;0;0
76330;PMS7003;65148;51.912;15.570;2023-07-20T18:59:17;0;0;0
76330;PMS7003;65148;51.912;15.570;2023-07-20T19:14:19;0;0;0
76330;PMS7003;65148;51.912;15.570;2023-07-20T19:29:20;0;0;0
76330;PMS7003;65148;51.912;15.570;2023-07-20T19:44:21;0;0;0
76330;PMS7003;65148;51.912;15.570;2023-07-20T19:59:39;2;2;2
76330;PMS7003;65148;51.912;15.570;2023-07-20T20:14:40;2;2;1
76330;PMS7003;65148;51.912;15.570;2023-07-20T20:29:42;1;1;1
76330;PMS7003;65148;51.912;15.570;2023-07-20T20:44:43;3;3;2
76330;PMS7003;65148;51.912;15.570;2023-07-20T21:00:02;7;6;4
76330;PMS7003;65148;51.912;15.570;2023-07-20T21:15:07;6;5;4
76330;PMS7003;65148;51.912;15.570;2023-07-20T21:30:09;4;4;3
76330;PMS7003;65148;51.912;15.570;2023-07-20T21:45:11;1;1;0
76330;PMS7003;65148;51.912;15.570;2023-07-20T22:00:25;4;3;2
76330;PMS7003;65148;51.912;15.570;2023-07-20T22:15:26;2;2;2
76330;PMS7003;65148;51.912;15.570;2023-07-20T22:30:27;4;4;3
76330;PMS7003;65148;51.912;15.570;2023-07-20T22:45:28;6;6;5
76330;PMS7003;65148;51.912;15.570;2023-07-20T23:00:48;5;5;4
76330;PMS7003;65148;51.912;15.570;2023-07-20T23:15:50;3;3;2
76330;PMS7003;65148;51.912;15.570;2023-07-20T23:30:51;3;3;3
76330;PMS7003;65148;51.912;15.570;2023-07-20T23:45:52;4;4;3
